createdAt,value
2018-04-17T00:01:45.675Z,16.17
2018-04-17T00:04:13.306Z,15.65
2018-04-17T00:06:40.899Z,13.52
2018-04-17T00:09:08.509Z,18.67
2018-04-17T00:11:36.162Z,11.20
2018-04-17T00:14:04.437Z,15.93
2018-04-17T00:16:32.019Z,18.55
2018-04-17T00:18:59.639Z,20.45
2018-04-17T00:21:27.201Z,17.00
2018-04-17T00:23:55.582Z,14.73
2018-04-17T00:26:23.962Z,11.18
2018-04-17T00:28:52.475Z,15.90
2018-04-17T00:31:20.072Z,12.20
2018-04-17T00:33:47.672Z,16.58
2018-04-17T00:36:15.296Z,18.92
2018-04-17T00:38:42.999Z,21.15
2018-04-17T00:41:10.692Z,16.25
2018-04-17T00:43:38.340Z,22.90
2018-04-17T00:46:05.936Z,12.05
2018-04-17T00:48:33.643Z,22.23
2018-04-17T00:51:01.228Z,19.08
2018-04-17T00:53:40.625Z,22.27
2018-04-17T00:56:09.008Z,18.95
2018-04-17T00:58:37.722Z,19.90
2018-04-17T01:01:05.328Z,18.17
2018-04-17T01:03:32.990Z,13.05
2018-04-17T01:06:00.602Z,15.38
2018-04-17T01:08:28.247Z,21.70
2018-04-17T01:10:56.622Z,21.70
2018-04-17T01:13:25.037Z,19.95
2018-04-17T01:15:52.669Z,15.93
2018-04-17T01:18:20.300Z,15.05
2018-04-17T01:20:47.883Z,16.10
2018-04-17T01:23:15.515Z,17.48
2018-04-17T01:25:43.133Z,16.80
2018-04-17T01:28:10.808Z,18.90
2018-04-17T01:30:38.457Z,12.60
2018-04-17T01:33:06.092Z,19.35
2018-04-17T01:35:33.704Z,13.95
2018-04-17T01:38:01.334Z,19.60
2018-04-17T01:40:28.967Z,14.32
2018-04-17T01:42:56.696Z,20.17
2018-04-17T01:45:24.412Z,14.07
2018-04-17T01:47:52.108Z,13.27
2018-04-17T01:50:19.784Z,25.40
2018-04-17T01:52:47.425Z,16.05
2018-04-17T01:55:15.113Z,15.77
2018-04-17T01:57:42.712Z,16.25
2018-04-17T02:00:11.119Z,21.67
2018-04-17T02:02:38.776Z,23.60
2018-04-17T02:05:07.405Z,20.23
2018-04-17T02:07:35.098Z,12.90
2018-04-17T02:10:02.840Z,19.92
2018-04-17T02:12:30.421Z,16.73
2018-04-17T02:14:58.134Z,25.15
2018-04-17T02:17:25.874Z,21.25
2018-04-17T02:19:53.901Z,19.92
2018-04-17T02:22:21.540Z,16.67
2018-04-17T02:24:49.207Z,15.73
2018-04-17T02:27:16.810Z,18.23
2018-04-17T02:29:44.434Z,21.02
2018-04-17T02:32:12.074Z,25.40
2018-04-17T02:34:39.686Z,20.95
2018-04-17T02:37:07.315Z,17.55
2018-04-17T02:39:35.002Z,20.65
2018-04-17T02:42:02.631Z,15.65
2018-04-17T02:44:30.224Z,19.42
2018-04-17T02:46:57.908Z,19.08
2018-04-17T02:49:26.260Z,20.20
2018-04-17T02:51:54.943Z,22.65
2018-04-17T02:54:22.610Z,25.00
2018-04-17T02:56:50.230Z,30.88
2018-04-17T02:59:17.870Z,25.83
2018-04-17T03:01:45.458Z,18.25
2018-04-17T03:04:13.582Z,19.67
2018-04-17T03:06:41.243Z,13.88
2018-04-17T03:09:08.877Z,16.85
2018-04-17T03:11:36.548Z,20.40
2018-04-17T03:14:04.208Z,22.42
2018-04-17T03:16:31.862Z,21.05
2018-04-17T03:18:59.535Z,18.17
2018-04-17T03:21:27.162Z,22.50
2018-04-17T03:23:54.789Z,17.77
2018-04-17T03:26:23.153Z,25.83
2018-04-17T03:28:50.970Z,20.48
2018-04-17T03:31:20.318Z,22.33
2018-04-17T03:33:47.886Z,21.77
2018-04-17T03:36:15.568Z,28.48
2018-04-17T03:38:43.214Z,15.30
2018-04-17T03:41:11.641Z,23.77
2018-04-17T03:43:39.273Z,16.62
2018-04-17T03:46:06.903Z,19.15
2018-04-17T03:48:34.519Z,18.05
2018-04-17T03:51:02.176Z,17.17
2018-04-17T03:53:30.264Z,22.37
2018-04-17T03:55:58.825Z,25.12
2018-04-17T03:58:26.407Z,14.10
2018-04-17T04:00:55.003Z,16.87
2018-04-17T04:03:22.601Z,23.33
2018-04-17T04:05:50.435Z,19.65
2018-04-17T04:08:18.060Z,14.82
2018-04-17T04:10:46.534Z,17.30
2018-04-17T04:13:14.580Z,18.75
2018-04-17T04:15:43.041Z,18.98
2018-04-17T04:18:22.660Z,21.05
2018-04-17T04:24:03.030Z,19.42
2018-04-17T04:26:31.388Z,21.08
2018-04-17T04:28:58.996Z,17.52
2018-04-17T04:31:26.643Z,35.45
2018-04-17T04:33:54.326Z,28.02
2018-04-17T04:36:22.028Z,31.17
2018-04-17T04:38:50.392Z,27.60
2018-04-17T04:41:18.024Z,28.12
2018-04-17T04:43:45.634Z,32.17
2018-04-17T04:46:14.159Z,28.17
2018-04-17T04:48:41.826Z,32.67
2018-04-17T04:51:09.745Z,26.70
2018-04-17T04:53:38.160Z,31.77
2018-04-17T04:56:05.856Z,31.15
2018-04-17T04:58:33.491Z,25.98
2018-04-17T05:01:01.183Z,30.80
2018-04-17T05:03:28.822Z,25.80
2018-04-17T05:05:56.475Z,27.40
2018-04-17T05:08:24.135Z,21.67
2018-04-17T05:10:51.772Z,16.52
2018-04-17T05:13:19.477Z,24.55
2018-04-17T05:15:47.565Z,23.58
2018-04-17T05:18:15.233Z,21.98
2018-04-17T05:20:43.711Z,17.80
2018-04-17T05:23:11.436Z,26.73
2018-04-17T05:25:39.109Z,22.77
2018-04-17T05:28:06.748Z,20.02
2018-04-17T05:30:34.416Z,32.53
2018-04-17T05:33:02.490Z,20.33
2018-04-17T05:35:30.133Z,13.07
2018-04-17T05:37:57.774Z,21.20
2018-04-17T05:40:25.430Z,21.87
2018-04-17T05:42:53.138Z,21.87
2018-04-17T05:45:20.903Z,24.77
2018-04-17T05:47:48.903Z,16.17
2018-04-17T05:50:17.303Z,19.08
2018-04-17T05:52:44.884Z,14.90
2018-04-17T05:55:12.572Z,23.70
2018-04-17T05:57:40.974Z,21.12
2018-04-17T06:00:08.593Z,17.55
2018-04-17T06:02:36.573Z,16.52
2018-04-17T06:05:04.292Z,18.12
2018-04-17T06:07:32.785Z,20.52
2018-04-17T06:10:01.435Z,21.93
2018-04-17T06:12:29.121Z,13.70
2018-04-17T06:14:57.608Z,16.83
2018-04-17T06:17:25.995Z,17.63
2018-04-17T06:19:53.633Z,18.23
2018-04-17T06:22:22.035Z,22.17
2018-04-17T06:24:49.712Z,24.33
2018-04-17T06:27:18.156Z,28.67
2018-04-17T06:29:45.839Z,20.30
2018-04-17T06:32:13.477Z,29.75
2018-04-17T06:34:41.390Z,25.27
2018-04-17T06:37:09.289Z,30.98
2018-04-17T06:39:36.963Z,27.08
2018-04-17T06:42:04.817Z,25.80
2018-04-17T06:44:32.423Z,20.60
2018-04-17T06:47:00.168Z,28.52
2018-04-17T06:49:27.888Z,17.27
2018-04-17T06:51:55.534Z,17.98
2018-04-17T06:54:23.942Z,22.08
2018-04-17T06:56:51.541Z,29.80
2018-04-17T06:59:19.927Z,27.40
2018-04-17T07:01:49.422Z,36.35
2018-04-17T07:04:17.441Z,22.92
2018-04-17T07:06:45.137Z,26.55
2018-04-17T07:09:12.811Z,27.05
2018-04-17T07:11:40.476Z,28.60
2018-04-17T07:14:08.129Z,28.92
2018-04-17T07:16:35.764Z,29.90
2018-04-17T07:19:03.365Z,21.90
2018-04-17T07:21:31.021Z,24.00
2018-04-17T07:23:58.649Z,35.28
2018-04-17T07:26:26.332Z,30.90
2018-04-17T07:28:53.950Z,32.20
2018-04-17T07:31:21.750Z,30.58
2018-04-17T07:33:49.392Z,30.77
2018-04-17T07:36:17.081Z,27.48
2018-04-17T07:38:44.735Z,29.50
2018-04-17T07:41:12.377Z,34.50
2018-04-17T07:43:39.986Z,27.58
2018-04-17T07:46:07.835Z,28.70
2018-04-17T07:48:47.600Z,39.08
2018-04-17T07:51:15.230Z,37.58
2018-04-17T07:53:43.066Z,31.42
2018-04-17T07:56:10.651Z,29.55
2018-04-17T07:58:38.738Z,26.43
2018-04-17T08:01:06.384Z,27.05
2018-04-17T08:03:34.057Z,30.80
2018-04-17T08:06:01.687Z,30.83
2018-04-17T08:08:30.097Z,26.93
2018-04-17T08:10:57.742Z,26.90
2018-04-17T08:13:25.346Z,20.77
2018-04-17T08:15:52.983Z,26.83
2018-04-17T08:18:20.665Z,28.73
2018-04-17T08:20:48.279Z,21.40
2018-04-17T08:23:16.658Z,34.00
2018-04-17T08:25:45.163Z,22.53
2018-04-17T08:28:13.378Z,21.47
2018-04-17T08:30:41.021Z,31.87
2018-04-17T08:33:08.666Z,21.87
2018-04-17T08:35:37.273Z,24.47
2018-04-17T08:38:04.953Z,23.43
2018-04-17T08:40:32.705Z,19.80
2018-04-17T08:43:00.380Z,24.63
2018-04-17T08:45:28.967Z,28.87
2018-04-17T08:47:57.342Z,23.00
2018-04-17T08:50:24.917Z,27.10
2018-04-17T08:52:53.285Z,31.97
2018-04-17T08:55:20.884Z,18.73
2018-04-17T08:57:48.512Z,18.37
2018-04-17T09:00:16.189Z,20.70
2018-04-17T09:02:43.768Z,31.03
2018-04-17T09:05:11.388Z,24.63
2018-04-17T09:07:39.090Z,19.77
2018-04-17T09:10:06.822Z,25.57
2018-04-17T09:12:34.419Z,23.20
2018-04-17T09:15:02.049Z,22.37
2018-04-17T09:17:30.694Z,23.63
2018-04-17T09:19:58.316Z,21.57
2018-04-17T09:22:26.149Z,24.93
2018-04-17T09:24:54.547Z,22.73
2018-04-17T09:27:22.980Z,21.10
2018-04-17T09:29:50.836Z,26.00
2018-04-17T09:32:18.470Z,27.97
2018-04-17T09:34:46.090Z,22.10
2018-04-17T09:37:13.712Z,21.43
2018-04-17T09:39:41.355Z,24.07
2018-04-17T09:42:09.727Z,21.50
2018-04-17T09:44:38.120Z,26.63
2018-04-17T09:47:05.753Z,22.63
2018-04-17T09:49:33.491Z,27.07
2018-04-17T09:52:01.154Z,24.83
2018-04-17T09:54:28.757Z,34.40
2018-04-17T09:56:57.176Z,19.47
2018-04-17T09:59:24.790Z,23.47
2018-04-17T10:01:53.230Z,24.03
2018-04-17T10:04:20.802Z,21.87
2018-04-17T10:06:48.424Z,14.80
2018-04-17T10:09:16.074Z,12.80
2018-04-17T10:11:44.507Z,21.73
2018-04-17T10:14:12.245Z,28.00
2018-04-17T10:16:40.102Z,22.93
2018-04-17T10:19:07.687Z,20.17
2018-04-17T10:21:35.475Z,28.10
2018-04-17T10:24:03.112Z,23.47
2018-04-17T10:26:30.701Z,16.77
2018-04-17T10:28:58.373Z,19.17
2018-04-17T10:31:26.072Z,24.63
2018-04-17T10:33:53.685Z,18.13
2018-04-17T10:36:21.290Z,20.30
2018-04-17T10:38:49.915Z,22.53
2018-04-17T10:41:17.545Z,24.53
2018-04-17T10:43:45.142Z,18.73
2018-04-17T10:46:12.781Z,16.40
2018-04-17T10:48:40.406Z,22.03
2018-04-17T10:51:08.063Z,24.33
2018-04-17T10:53:35.693Z,22.70
2018-04-17T10:56:04.141Z,17.80
2018-04-17T10:58:31.800Z,20.57
2018-04-17T11:00:59.467Z,17.20
2018-04-17T11:03:28.069Z,24.57
2018-04-17T11:05:55.848Z,21.27
2018-04-17T11:08:23.473Z,15.60
2018-04-17T11:10:51.165Z,20.10
2018-04-17T11:13:18.761Z,16.57
2018-04-17T11:15:46.419Z,14.63
2018-04-17T11:18:14.050Z,20.00
2018-04-17T11:20:41.723Z,12.17
2018-04-17T11:23:09.413Z,20.53
2018-04-17T11:25:37.871Z,16.63
2018-04-17T11:28:05.596Z,18.33
2018-04-17T11:30:33.251Z,26.90
2018-04-17T11:33:01.337Z,24.77
2018-04-17T11:35:29.005Z,23.67
2018-04-17T11:37:56.647Z,17.90
2018-04-17T11:40:24.344Z,17.70
2018-04-17T11:42:52.075Z,14.80
2018-04-17T11:45:19.808Z,22.77
2018-04-17T11:47:48.210Z,23.17
2018-04-17T11:50:16.086Z,22.67
2018-04-17T11:52:43.712Z,35.17
2018-04-17T11:55:11.372Z,26.43
2018-04-17T11:57:39.032Z,19.43
2018-04-17T12:00:07.417Z,25.63
2018-04-17T12:02:35.824Z,23.07
2018-04-17T12:05:03.396Z,20.77
2018-04-17T12:07:31.011Z,20.93
2018-04-17T12:09:58.705Z,31.50
2018-04-17T12:12:26.341Z,18.70
2018-04-17T12:14:54.673Z,22.20
2018-04-17T12:17:22.307Z,19.27
2018-04-17T12:19:49.936Z,23.63
2018-04-17T12:22:18.309Z,24.03
2018-04-17T12:24:46.722Z,21.03
2018-04-17T12:27:14.339Z,25.07
2018-04-17T12:29:42.863Z,20.47
2018-04-17T12:32:10.577Z,22.30
2018-04-17T12:34:38.202Z,22.93
2018-04-17T12:37:05.840Z,20.63
2018-04-17T12:39:34.195Z,19.63
2018-04-17T12:42:01.863Z,18.83
2018-04-17T12:44:30.205Z,32.70
2018-04-17T12:46:57.839Z,22.53
2018-04-17T12:49:25.476Z,23.23
2018-04-17T12:51:53.881Z,21.13
2018-04-17T12:54:22.456Z,17.30
2018-04-17T12:56:50.100Z,20.93
2018-04-17T12:59:18.558Z,21.13
2018-04-17T13:01:46.157Z,19.30
2018-04-17T13:04:13.903Z,23.97
2018-04-17T13:06:41.554Z,24.30
2018-04-17T13:09:10.031Z,21.10
2018-04-17T13:11:37.632Z,16.83
2018-04-17T13:14:05.795Z,22.20
2018-04-17T13:16:33.467Z,26.13
2018-04-17T13:19:01.048Z,24.63
2018-04-17T13:21:28.795Z,17.07
2018-04-17T13:23:56.447Z,19.10
2018-04-17T13:26:24.159Z,20.20
2018-04-17T13:28:51.819Z,24.57
2018-04-17T13:31:19.461Z,21.00
2018-04-17T13:33:47.039Z,22.57
2018-04-17T13:36:14.738Z,12.50
2018-04-17T13:38:43.169Z,15.47
2018-04-17T13:41:10.786Z,13.10
2018-04-17T13:43:39.157Z,19.60
2018-04-17T13:46:08.352Z,18.10
2018-04-17T13:48:36.753Z,16.67
2018-04-17T13:51:05.254Z,19.00
2018-04-17T13:53:32.903Z,15.47
2018-04-17T13:56:00.540Z,23.83
2018-04-17T13:58:28.162Z,23.07
2018-04-17T14:00:55.838Z,19.70
2018-04-17T14:03:23.478Z,22.40
2018-04-17T14:05:51.145Z,9.70
2018-04-17T14:08:19.552Z,14.60
2018-04-17T14:10:47.185Z,13.67
2018-04-17T14:13:14.828Z,13.77
2018-04-17T14:15:42.455Z,13.57
2018-04-17T14:18:10.177Z,25.17
2018-04-17T14:20:37.846Z,12.73
2018-04-17T14:23:05.610Z,11.80
2018-04-17T14:25:33.248Z,19.50
2018-04-17T14:28:01.013Z,17.40
2018-04-17T14:30:28.686Z,16.50
2018-04-17T14:32:56.509Z,15.90
2018-04-17T14:35:25.017Z,11.80
2018-04-17T14:37:52.590Z,12.50
2018-04-17T14:40:20.260Z,14.83
2018-04-17T14:42:47.833Z,25.33
2018-04-17T14:45:15.498Z,20.07
2018-04-17T14:47:43.340Z,15.27
2018-04-17T14:50:10.974Z,19.20
2018-04-17T14:52:38.606Z,14.80
2018-04-17T14:55:06.292Z,27.40
2018-04-17T14:57:34.711Z,11.50
2018-04-17T15:00:02.472Z,19.17
2018-04-17T15:02:30.235Z,18.60
2018-04-17T15:04:57.856Z,20.17
2018-04-17T15:07:26.287Z,10.27
2018-04-17T15:09:53.934Z,15.13
2018-04-17T15:12:21.595Z,16.80
2018-04-17T15:14:49.196Z,17.73
2018-04-17T15:17:16.816Z,14.10
2018-04-17T15:19:44.487Z,22.60
2018-04-17T15:22:12.177Z,14.63
2018-04-17T15:24:39.888Z,15.93
2018-04-17T15:27:07.535Z,16.90
2018-04-17T15:29:35.931Z,16.63
2018-04-17T15:32:03.540Z,14.57
2018-04-17T15:34:32.085Z,12.30
2018-04-17T15:36:59.744Z,17.47
2018-04-17T15:39:27.362Z,17.60
2018-04-17T15:41:55.753Z,21.30
2018-04-17T15:44:25.316Z,14.80
2018-04-17T15:46:53.887Z,16.23
2018-04-17T15:49:21.559Z,20.90
2018-04-17T15:51:49.253Z,13.27
2018-04-17T15:54:16.922Z,17.07
2018-04-17T15:56:45.297Z,19.10
2018-04-17T15:59:13.030Z,14.00
2018-04-17T16:01:40.782Z,16.33
2018-04-17T16:04:08.424Z,13.50
2018-04-17T16:06:36.112Z,16.23
2018-04-17T16:09:03.709Z,21.30
2018-04-17T16:11:32.129Z,14.37
2018-04-17T16:13:59.772Z,15.30
2018-04-17T16:16:27.396Z,18.60
2018-04-17T16:18:55.057Z,13.83
2018-04-17T16:21:22.700Z,13.37
2018-04-17T16:23:51.065Z,13.83
2018-04-17T16:26:18.700Z,20.00
2018-04-17T16:28:46.388Z,12.83
2018-04-17T16:31:14.052Z,14.33
2018-04-17T16:33:42.562Z,13.67
2018-04-17T16:36:10.484Z,17.20
2018-04-17T16:38:38.091Z,18.30
2018-04-17T16:41:05.923Z,11.47
2018-04-17T16:43:34.151Z,11.53
2018-04-17T16:46:02.523Z,14.67
2018-04-17T16:48:30.115Z,16.00
2018-04-17T16:50:58.497Z,15.40
2018-04-17T16:53:26.891Z,12.83
2018-04-17T16:55:54.487Z,10.67
2018-04-17T16:58:22.098Z,16.27
2018-04-17T17:00:49.916Z,12.43
2018-04-17T17:03:17.484Z,15.73
2018-04-17T17:05:45.272Z,16.37
2018-04-17T17:08:13.614Z,16.23
2018-04-17T17:10:41.295Z,14.53
2018-04-17T17:13:08.846Z,14.50
2018-04-17T17:15:36.509Z,13.40
2018-04-17T17:18:05.051Z,17.80
2018-04-17T17:20:32.665Z,15.67
2018-04-17T17:23:00.566Z,22.37
2018-04-17T17:25:28.211Z,17.23
2018-04-17T17:27:55.943Z,19.20
2018-04-17T17:30:23.592Z,18.07
2018-04-17T17:32:51.382Z,17.63
2018-04-17T17:35:19.127Z,17.57
2018-04-17T17:37:46.928Z,11.47
2018-04-17T17:40:14.542Z,17.53
2018-04-17T17:42:43.065Z,20.80
2018-04-17T17:45:10.772Z,16.63
2018-04-17T17:47:38.421Z,14.00
2018-04-17T17:50:06.100Z,11.83
2018-04-17T17:52:34.447Z,12.77
2018-04-17T17:55:03.875Z,13.17
2018-04-17T17:57:31.586Z,11.03
2018-04-17T18:00:00.091Z,11.00
2018-04-17T18:02:28.474Z,18.67
2018-04-17T18:04:57.703Z,14.80
2018-04-17T18:07:26.207Z,14.67
2018-04-17T18:09:53.814Z,11.53
2018-04-17T18:12:21.595Z,20.03
2018-04-17T18:14:49.927Z,19.63
2018-04-17T18:17:17.666Z,13.27
2018-04-17T18:19:45.307Z,18.13
2018-04-17T18:22:13.701Z,9.87
2018-04-17T18:24:41.571Z,15.67
2018-04-17T18:27:09.230Z,12.57
2018-04-17T18:29:36.827Z,14.63
2018-04-17T18:32:05.330Z,14.90
2018-04-17T18:34:33.727Z,14.87
2018-04-17T18:37:01.452Z,18.97
2018-04-17T18:39:29.863Z,26.93
2018-04-17T18:41:58.239Z,17.30
2018-04-17T18:44:26.774Z,14.10
2018-04-17T18:46:55.252Z,13.33
2018-04-17T18:49:23.281Z,11.90
2018-04-17T18:51:50.941Z,17.93
2018-04-17T18:54:19.653Z,20.53
2018-04-17T18:56:47.277Z,19.93
2018-04-17T18:59:15.781Z,27.97
2018-04-17T19:01:43.466Z,12.93
2018-04-17T19:04:11.094Z,18.23
2018-04-17T19:06:38.716Z,21.13
2018-04-17T19:09:06.439Z,13.13
2018-04-17T19:11:34.051Z,23.67
2018-04-17T19:14:02.197Z,17.63
2018-04-17T19:16:30.158Z,18.27
2018-04-17T19:18:57.766Z,17.90
2018-04-17T19:21:25.468Z,21.00
2018-04-17T19:23:53.126Z,15.23
2018-04-17T19:26:20.974Z,16.47
2018-04-17T19:28:48.628Z,23.63
2018-04-17T19:31:16.293Z,15.63
2018-04-17T19:33:44.889Z,24.47
2018-04-17T19:36:12.542Z,21.20
2018-04-17T19:38:40.180Z,18.30
2018-04-17T19:41:08.551Z,19.87
2018-04-17T19:43:36.165Z,20.20
2018-04-17T19:46:03.829Z,19.20
2018-04-17T19:48:31.483Z,25.40
2018-04-17T19:50:59.183Z,22.93
2018-04-17T19:53:26.812Z,24.53
2018-04-17T19:55:54.452Z,20.33
2018-04-17T19:58:22.819Z,25.80
2018-04-17T20:00:51.228Z,23.57
2018-04-17T20:03:18.845Z,20.13
2018-04-17T20:05:46.498Z,20.87
2018-04-17T20:08:14.791Z,25.60
2018-04-17T20:10:42.487Z,30.47
2018-04-17T20:13:10.197Z,24.80
2018-04-17T20:15:38.424Z,30.23
2018-04-17T20:18:07.043Z,22.30
2018-04-17T20:20:34.737Z,28.33
2018-04-17T20:23:02.296Z,31.60
2018-04-17T20:25:29.957Z,28.73
2018-04-17T20:27:57.605Z,27.80
2018-04-17T20:30:25.319Z,33.73
2018-04-17T20:32:53.010Z,23.53
2018-04-17T20:35:20.638Z,23.60
2018-04-17T20:37:48.245Z,29.17
2018-04-17T20:40:15.906Z,27.33
2018-04-17T20:42:43.571Z,36.90
2018-04-17T20:45:11.289Z,30.77
2018-04-17T20:47:38.903Z,34.30
2018-04-17T20:50:06.546Z,23.07
2018-04-17T20:52:34.175Z,22.00
2018-04-17T20:55:01.776Z,28.17
2018-04-17T20:57:30.197Z,25.80
2018-04-17T20:59:57.800Z,29.60
2018-04-17T21:02:25.874Z,24.53
2018-04-17T21:04:55.738Z,24.27
2018-04-17T21:07:24.470Z,32.92
2018-04-17T21:09:52.065Z,28.87
2018-04-17T21:12:20.517Z,35.20
2018-04-17T21:14:48.141Z,32.40
2018-04-17T21:17:15.801Z,31.33
2018-04-17T21:19:44.155Z,28.47
2018-04-17T21:22:11.789Z,24.97
2018-04-17T21:24:39.678Z,21.03
2018-04-17T21:27:07.289Z,22.77
2018-04-17T21:29:34.889Z,30.03
2018-04-17T21:32:02.533Z,23.50
2018-04-17T21:34:30.260Z,29.97
2018-04-17T21:36:57.950Z,32.43
2018-04-17T21:39:25.599Z,35.23
2018-04-17T21:41:53.172Z,33.13
2018-04-17T21:44:20.768Z,31.43
2018-04-17T21:46:48.460Z,30.35
2018-04-17T21:49:16.851Z,25.47
2018-04-17T21:51:45.218Z,30.43
2018-04-17T21:54:13.580Z,30.65
2018-04-17T21:56:42.115Z,29.27
2018-04-17T21:59:09.822Z,24.33
2018-04-17T22:01:37.441Z,26.13
2018-04-17T22:04:05.063Z,25.48
2018-04-17T22:06:33.791Z,23.70
2018-04-17T22:09:01.491Z,19.90
2018-04-17T22:11:29.115Z,27.87
2018-04-17T22:13:56.754Z,25.92
2018-04-17T22:16:24.393Z,28.83
2018-04-17T22:18:52.746Z,28.12
2018-04-17T22:21:20.439Z,28.10
2018-04-17T22:23:48.013Z,26.67
2018-04-17T22:26:15.631Z,31.65
2018-04-17T22:28:43.331Z,23.92
2018-04-17T22:31:10.950Z,22.65
2018-04-17T22:33:38.568Z,28.87
2018-04-17T22:36:06.224Z,24.05
2018-04-17T22:38:34.460Z,33.05
2018-04-17T22:41:02.109Z,24.92
2018-04-17T22:43:29.767Z,28.48
2018-04-17T22:45:57.391Z,22.27
2018-04-17T22:48:24.989Z,27.73
2018-04-17T22:50:52.615Z,23.80
2018-04-17T22:53:20.237Z,27.00
2018-04-17T22:55:48.632Z,25.33
2018-04-17T22:58:17.022Z,28.00
2018-04-17T23:00:45.382Z,33.22
2018-04-17T23:03:13.808Z,23.65
2018-04-17T23:05:41.403Z,26.62
2018-04-17T23:08:09.674Z,28.77
2018-04-17T23:10:37.249Z,28.50
2018-04-17T23:13:04.853Z,24.50
2018-04-17T23:15:33.697Z,24.20
2018-04-17T23:18:02.032Z,24.20
2018-04-17T23:20:29.643Z,30.90
2018-04-17T23:22:57.297Z,30.55
2018-04-17T23:25:24.929Z,27.33
2018-04-17T23:27:52.561Z,30.50
2018-04-17T23:30:20.679Z,34.67
2018-04-17T23:32:48.263Z,25.25
2018-04-17T23:35:16.440Z,33.88
2018-04-17T23:37:44.810Z,28.90
2018-04-17T23:40:12.479Z,33.13
2018-04-17T23:42:40.852Z,32.00
2018-04-17T23:45:08.504Z,36.33
2018-04-17T23:47:36.099Z,45.22
2018-04-17T23:50:04.482Z,27.42
2018-04-17T23:52:32.925Z,34.28
2018-04-17T23:55:00.546Z,27.35
2018-04-17T23:57:28.411Z,29.67
2018-04-17T23:59:55.987Z,27.83
